Loging...

KPDC, Korea Polar Data Center

Korea Polar Data Center Scientific observations and results from Antarctica shall
be exchanged and made freely available

Keyword Search

Advanced Search

Search 22,641 data out of 28,375

Metadata Search Results1
No. Title Reg. Date
1 [KOPRI-KPDC-00001430]Sea ice carbon data for the East Siberian Sea, Arctic Ocean in 2017 2020-04-02
2 [KOPRI-KPDC-00001429]Temporal variation of phytoplankton in the surface water of Marian Cove, King George Island, Antarctica, 2019 2020-03-30
3 [KOPRI-KPDC-00001428]Temporal variation of marine phytoplankton in the surface water of the Antarctic Jang Bogo Station in Terra Nova Bay, October 2018- December 2019 2020-03-26
4 [KOPRI-KPDC-00001396]Wind data on ARAON DaDis for Arctic cruise, 2019 2020-03-04
5 [KOPRI-KPDC-00001409]ARA10C Multi-Channel Seismic Survey Data 2020-03-04
6 [KOPRI-KPDC-00001241]Phytoplankton abundance in the Amundsen Sea in 2017/2018 2020-03-03
7 [KOPRI-KPDC-00000601]Depth profiles of temperature and salinity in the Ross Sea, Antarctica, in December 2015 2020-01-28
8 [KOPRI-KPDC-00000749]NIWA oceanographic mooring data in the Drygalski Ice Tongue North 2016 2020-01-28
9 [KOPRI-KPDC-00000906]NIWA oceanographic deep mooring data in the Drygalski Ice Tongue 2017 2020-01-28
10 [KOPRI-KPDC-00000898]NIWA oceanographic mooring data in the Drygalski Ice Tongue North 2017 2020-01-28
11 [KOPRI-KPDC-00001060]NIWA oceanographic mooring data in the Drygalski Ice Tongue North 2015 2020-01-28
12 [KOPRI-KPDC-00000896]LADCP data observed in the Terra Nova Bay, Ross Sea, in March, 2018 (ANA08C) 2020-01-28
13 [KOPRI-KPDC-00001065]LADCP data observed in the Terra Nova Bay, Ross Sea, in January, 2017 (ANA07C) 2020-01-28
14 [KOPRI-KPDC-00001061]LADCP data observed in the Terra Nova Bay, Ross Sea, in December, 2015 (ANA06A) 2020-01-28
15 [KOPRI-KPDC-00001064]LADCP data observed in the Terra Nova Bay, Ross Sea, in December, 2014 (ANA05A) 2020-01-28
16 [KOPRI-KPDC-00000895]CTD profiles observed in the Terra Nova Bay, Ross Sea, in March, 2018 (ANA08C) 2020-01-28
17 [KOPRI-KPDC-00001063]CTD profiles observed in the Terra Nova Bay, Ross Sea, in January, 2017 (ANA07C) 2020-01-28
18 [KOPRI-KPDC-00001062]CTD profiles observed in the Terra Nova Bay, Ross Sea, in December, 2014 (ANA05A) 2020-01-28
19 [KOPRI-KPDC-00001422]Surface observation of CH4 in the atmosphere and ocean 2020-01-09
20 [KOPRI-KPDC-00001423]2019 Arctic Araon Cruise (ARA10C) sediment cores (multiple, gravity, and box cores) 2019-12-16
21 [KOPRI-KPDC-00001421]Hydrocasting observation of conductivity, temperature, and depth (CTD) 2019-12-16
22 [KOPRI-KPDC-00001224]ANA09B Seismic Sparker Survey Lines 2019-12-13
23 [KOPRI-KPDC-00001408]ARA10C Sub-bottom profiler Survey Data 2019-12-13
24 [KOPRI-KPDC-00001419]Wind data on ARAON DaDis for Antarctic cruise, 2018/2019 2019-12-11
25 [KOPRI-KPDC-00001407]ARA10C Multibeam Survey 2019-11-19
26 [KOPRI-KPDC-00001405]Wind data on ARAON DaDis for Antarctic cruise, 2018/2019 2019-11-12
27 [KOPRI-KPDC-00001404]Wind data on ARAON DaDis for Antarctic cruise, 2017/2018 2019-11-12
28 [KOPRI-KPDC-00001403]Wind data on ARAON DaDis for Antarctic cruise, 2016/2017 2019-11-12
29 [KOPRI-KPDC-00001402]Wind data on ARAON DaDis for Antarctic cruise, 2015/2016 2019-11-12
30 [KOPRI-KPDC-00001401]Wind data on ARAON DaDis for Antarctic cruise, 2014/2015 2019-11-12
31 [KOPRI-KPDC-00001400]Wind data on ARAON DaDis for Antarctic cruise, 2013/2014 2019-11-12
32 [KOPRI-KPDC-00001399]Wind data on ARAON DaDis for Antarctic cruise, 2012/2013 2019-11-12
33 [KOPRI-KPDC-00001398]Wind data on ARAON DaDis for Antarctic cruise, 2011/2012 2019-11-12
34 [KOPRI-KPDC-00001397]Wind data on ARAON DaDis for Antarctic cruise, 2010/2011 2019-11-12
35 [KOPRI-KPDC-00001395]Wind data on ARAON DaDis for Arctic cruise, 2018 2019-11-12
36 [KOPRI-KPDC-00001394]Wind data on ARAON DaDis for Arctic cruise, 2017 2019-11-12
37 [KOPRI-KPDC-00001393]Wind data on ARAON DaDis for Arctic cruise, 2016 2019-11-12
38 [KOPRI-KPDC-00001392]Wind data on ARAON DaDis for Arctic cruise, 2015 2019-11-12
39 [KOPRI-KPDC-00001391]Wind data on ARAON DaDis for Arctic cruise, 2010 2019-11-12
40 [KOPRI-KPDC-00001390]Wind data on ARAON DaDis for Arctic cruise, 2011 2019-11-12
41 [KOPRI-KPDC-00001389]Wind data on ARAON DaDis for Arctic cruise, 2012 2019-11-12
42 [KOPRI-KPDC-00001388]Wind data on ARAON DaDis for Arctic cruise, 2013 2019-11-12
43 [KOPRI-KPDC-00001387]Wind data on ARAON DaDis for Arctic cruise, 2014 2019-11-12
44 [KOPRI-KPDC-00001386]Weather data on ARAON DaDis for Arctic cruise, 2019 2019-11-12
45 [KOPRI-KPDC-00001385]Weather data on ARAON DaDis for Arctic cruise, 2018 2019-11-12
46 [KOPRI-KPDC-00001384]Weather data on ARAON DaDis for Arctic cruise, 2017 2019-11-12
47 [KOPRI-KPDC-00001383]Weather data on ARAON DaDis for Arctic cruise, 2016 2019-11-12
48 [KOPRI-KPDC-00001382]Weather data on ARAON DaDis for Antarctic cruise, 2018/2019 2019-11-12
49 [KOPRI-KPDC-00001381]Weather data on ARAON DaDis for Antarctic cruise, 2017/2018 2019-11-12
50 [KOPRI-KPDC-00001380]Weather data on ARAON DaDis for Antarctic cruise, 2016/2017 2019-11-12
51 [KOPRI-KPDC-00001379]Thermosalinograph data on ARAON DaDis for Antarctic cruise, 2018/2019 2019-11-12
52 [KOPRI-KPDC-00001378]Thermosalinograph data on ARAON DaDis for Antarctic cruise, 2017/2018 2019-11-12
53 [KOPRI-KPDC-00001377]Thermosalinograph data on ARAON DaDis for Antarctic cruise, 2016/2017 2019-11-12
54 [KOPRI-KPDC-00001376]Thermosalinograph data on ARAON DaDis for Antarctic cruise, 2015/2016 2019-11-12
55 [KOPRI-KPDC-00001375]Thermosalinograph data on ARAON DaDis for Antarctic cruise, 2014/2015 2019-11-12
56 [KOPRI-KPDC-00001374]Thermosalinograph data on ARAON DaDis for Antarctic cruise, 2013/2014 2019-11-12
57 [KOPRI-KPDC-00001373]Thermosalinograph data on ARAON DaDis for Antarctic cruise, 2012/2013 2019-11-12
58 [KOPRI-KPDC-00001372]Thermosalinograph data on ARAON DaDis for Antarctic cruise, 2011/2012 2019-11-12
59 [KOPRI-KPDC-00001371]Thermosalinograph data on ARAON DaDis for Antarctic cruise, 2010/2011 2019-11-12
60 [KOPRI-KPDC-00001370]Thermosalinograph data on ARAON DaDis for Arctic cruise, 2019 2019-11-12
61 [KOPRI-KPDC-00001369]Thermosalinograph data on ARAON DaDis for Arctic cruise, 2018 2019-11-12
62 [KOPRI-KPDC-00001368]Thermosalinograph data on ARAON DaDis for Arctic cruise, 2017 2019-11-12
63 [KOPRI-KPDC-00001367]Thermosalinograph data on ARAON DaDis for Arctic cruise, 2016 2019-11-12
64 [KOPRI-KPDC-00001366]Thermosalinograph data on ARAON DaDis for Arctic cruise, 2015 2019-11-12
65 [KOPRI-KPDC-00001365]Thermosalinograph data on ARAON DaDis for Arctic cruise, 2014 2019-11-12
66 [KOPRI-KPDC-00001364]Thermosalinograph data on ARAON DaDis for Arctic cruise, 2013 2019-11-12
67 [KOPRI-KPDC-00001363]Thermosalinograph data on ARAON DaDis for Arctic cruise, 2012 2019-11-12
68 [KOPRI-KPDC-00001362]Thermosalinograph data on ARAON DaDis for Arctic cruise, 2011 2019-11-12
69 [KOPRI-KPDC-00001361]Thermosalinograph data on ARAON DaDis for Arctic cruise, 2010 2019-11-12
70 [KOPRI-KPDC-00001360]Motion sensor data on ARAON DaDis for Antarctic cruise, 2018/2019 2019-11-12
71 [KOPRI-KPDC-00001359]Motion sensor data on ARAON DaDis for Antarctic cruise, 2017/2018 2019-11-12
72 [KOPRI-KPDC-00001358]Motion sensor data on ARAON DaDis for Antarctic cruise, 2016/2017 2019-11-12
73 [KOPRI-KPDC-00001357]Motion sensor data on ARAON DaDis for Antarctic cruise, 2015/2016 2019-11-12
74 [KOPRI-KPDC-00001356]Motion sensor data on ARAON DaDis for Antarctic cruise, 2014/2015 2019-11-12
75 [KOPRI-KPDC-00001355]Motion sensor data on ARAON DaDis for Antarctic cruise, 2013/2014 2019-11-12
76 [KOPRI-KPDC-00001354]Motion sensor data on ARAON DaDis for Antarctic cruise, 2012/2013 2019-11-12
77 [KOPRI-KPDC-00001353]Motion sensor data on ARAON DaDis for Antarctic cruise, 2011/2012 2019-11-12
78 [KOPRI-KPDC-00001352]Motion sensor data on ARAON DaDis for Antarctic cruise, 2010/2011 2019-11-12
79 [KOPRI-KPDC-00001351]Motion sensor data on ARAON DaDis for Arctic cruise, 2019 2019-11-12
80 [KOPRI-KPDC-00001350]Motion sensor data on ARAON DaDis for Arctic cruise, 2018 2019-11-12
81 [KOPRI-KPDC-00001349]Motion sensor data on ARAON DaDis for Arctic cruise, 2017 2019-11-12
82 [KOPRI-KPDC-00001348]Motion sensor data on ARAON DaDis for Arctic cruise, 2016 2019-11-12
83 [KOPRI-KPDC-00001347]Motion sensor data on ARAON DaDis for Arctic cruise, 2015 2019-11-12
84 [KOPRI-KPDC-00001346]Motion sensor data on ARAON DaDis for Arctic cruise, 2014 2019-11-12
85 [KOPRI-KPDC-00001345]Motion sensor data on ARAON DaDis for Arctic cruise, 2013 2019-11-12
86 [KOPRI-KPDC-00001344]Motion sensor data on ARAON DaDis for Arctic cruise, 2012 2019-11-12
87 [KOPRI-KPDC-00001343]Motion sensor data on ARAON DaDis for Arctic cruise, 2011 2019-11-12
88 [KOPRI-KPDC-00001342]Motion sensor data on ARAON DaDis for Arctic cruise, 2010 2019-11-12
89 [KOPRI-KPDC-00001336]Gyro compass data on ARAON DaDis for Antarctic cruise, 2014/2015 2019-11-08
90 [KOPRI-KPDC-00001340]Gyro compass data on ARAON DaDis for Antarctic cruise, 2018/2019 2019-11-08
91 [KOPRI-KPDC-00001339]Gyro compass data on ARAON DaDis for Antarctic cruise, 2017/2018 2019-11-08
92 [KOPRI-KPDC-00001338]Gyro compass data on ARAON DaDis for Antarctic cruise, 2016/2017 2019-11-08
93 [KOPRI-KPDC-00001337]Gyro compass data on ARAON DaDis for Antarctic cruise, 2015/2016 2019-11-08
94 [KOPRI-KPDC-00001335]Gyro compass data on ARAON DaDis for Antarctic cruise, 2013/2014 2019-11-08
95 [KOPRI-KPDC-00001334]Gyro compass data on ARAON DaDis for Antarctic cruise, 2012/2013 2019-11-08
96 [KOPRI-KPDC-00001333]Gyro compass data on ARAON DaDis for Antarctic cruise, 2011/2012 2019-11-08
97 [KOPRI-KPDC-00001332]Gyro compass data on ARAON DaDis for Antarctic cruise, 2010/2011 2019-11-08
98 [KOPRI-KPDC-00001331]Gyro compass data on ARAON DaDis for Arctic cruise, 2019 2019-11-08
99 [KOPRI-KPDC-00001330]Gyro compass data on ARAON DaDis for Arctic cruise, 2018 2019-11-08
100 [KOPRI-KPDC-00001329]Gyro compass data on ARAON DaDis for Arctic cruise, 2017 2019-11-08